Tomahawk, WI

8:55 AM CDT on September 17, 2014 (GMT -0500)
Merrill Municipal | Change Station
CLOSE
Current Station
Airport
Location: Merrill,
Elevation: 1316 ft
Nearby Weather Stations

Elev 1316 ft 45.20 °N, 89.71 °W | Updated 20 minutes ago

Partly Cloudy
Partly Cloudy
45 °F
Feels Like 45 °F
N
0
Wind Variable Wind from North

Today
High -- | Low -- °F
--% Chance of Precip.
Yesterday
High -- | Low -- °F
Precip. -- in
6:39 AM 7:06 PM
Waning Crescent, 36% visible
Pressure 29.98 in
Visibility 10.0 miles
Clouds Scattered Clouds 4300 ft
Scattered Clouds 5000 ft
Mostly Cloudy 6000 ft
Dew Point 42 °F
Humidity 92%
Rainfall 0.00 in
Snow Depth Not available.
UV 1 out of 12
Pollen 4.20 out of 12
Air Quality Not available.
Flu Activity Not available.
METAR KRRL 171335Z AUTO 00000KT 10SM SCT043 SCT050 BKN060 07/06 A2998 RMK AO2 T00700058

More Conditions Fewer Conditions

Pressure 29.98 in
Visibility 10.0 miles
Clouds Scattered Clouds 4300 ft
Scattered Clouds 5000 ft
Mostly Cloudy 6000 ft
Dew Point 42 °F
Humidity 92%
Rainfall 0.00 in
Snow Depth Not available.
UV 1 out of 12
Pollen 4.20 out of 12
Air Quality Not available.
Flu Activity Not available.
METAR KRRL 171335Z AUTO 00000KT 10SM SCT043 SCT050 BKN060 07/06 A2998 RMK AO2 T00700058

More Conditions Fewer Conditions

10-Day Weather Forecast

Almanac

Astronomy

Sep. 17, 2014 Rise Set
Actual Time 6:39 AM CDT 7:06 PM CDT
Civil Twilight 6:10 AM CDT 7:35 PM CDT
Nautical Twilight 5:35 AM CDT 8:10 PM CDT
Astronomical Twilight 4:58 AM CDT 8:46 PM CDT
Moon 12:27 AM CDT 3:27 PM CDT
Length of Visible Light 13h 25m
Length of Day
12h 26m
Tomorrow will be 3m 9s shorter.
Waning Crescent, 36% of the Moon is Illuminated
Today
Waning Crescent
Sep 24
New
Oct 1
First Quarter
Oct 8
Full
Oct 15
Last Quarter

Today's Extremes

State Highs State Lows

Community

WunderPhotos

Upload Photos

1,754,029 photos uploaded!

WunderBlogs® & News

Nearby

Snow Depth

Station Depth Elevation
No new snow has been reported.

Earthquake Activity

City Distance Mag. Time & Date
No recent earthquake activity has been reported nearby.
Minimum magnitude displayed is 2.5.

Coastal Water Temperatures

Place Temperature
No Stations Reporting

Nearby Weather Stations